»·PEaware :: N522PM KSNA-KSBA

N522PM :: KSNA-KSBA

FLIGHT INFORMATION

Flight Status: Arrived
Operator: Privately registered:
United States
More flights under this callsign
Pilot: Bruce B. (6887)
Aircraft: Unknown
(E50P)
More flights by this aircraft type
Origin: KSNA John Wayne-Orange Co
United States
Destination: KSBA Santa Barbara Mun
United States
More flights between these airports :: More routes between these airports
Route: +SXC V208 VTU VTU282R KWANG
File this flight plan on PilotEdge
Remarks: TEC ROUTE CSTP28
Altitude:
(Current/Filed)
10,000ft
Speed:
(Current/Filed)
275kts
Departed: 15-Apr-19 04:06 PM
Arrived: 15-Apr-19 04:42 PM
Distance/Time
Traveled:
108nm/0:36
Distance/Time
To Go:
Arrived

Flight Plot

Page will automatically refresh every two minutes.


Map Options




Map Legend


Flown Route
Filed Route
Departure Airport
Arrival Airport
Navaid (VOR, NDB)
Fix

Horizontal Profiles

Position Reports

Time Latitude Longitude Heading Altitude Ground
Speed
15-Apr-19 15:55 33.672039 -117.867433 210 61ft 0kts
15-Apr-19 15:56 33.672039 -117.867433 210 61ft 0kts
15-Apr-19 15:57 33.672039 -117.867433 210 61ft 0kts
15-Apr-19 15:58 33.672039 -117.867433 210 61ft 0kts
15-Apr-19 15:59 33.672039 -117.867433 210 61ft 0kts
15-Apr-19 16:00 33.672039 -117.867433 210 61ft 0kts
15-Apr-19 16:01 33.673145 -117.867142 29 61ft 15kts
15-Apr-19 16:02 33.676575 -117.864965 27 61ft 15kts
15-Apr-19 16:03 33.680634 -117.863130 306 61ft 9kts
15-Apr-19 16:04 33.681180 -117.864319 298 61ft 8kts
15-Apr-19 16:05 33.674626 -117.869541 207 76ft 103kts
15-Apr-19 16:06 33.633598 -117.877383 187 1604ft 180kts
15-Apr-19 16:07 33.582974 -117.896475 231 3395ft 226kts
15-Apr-19 16:08 33.557959 -117.959996 242 6145ft 194kts
15-Apr-19 16:09 33.534847 -118.016759 245 8220ft 193kts
15-Apr-19 16:10 33.510297 -118.079039 245 9659ft 219kts
15-Apr-19 16:11 33.481595 -118.151722 245 10004ft 261kts
15-Apr-19 16:12 33.449931 -118.231689 245 10005ft 273kts
15-Apr-19 16:13 33.417247 -118.314044 245 10007ft 275kts
15-Apr-19 16:14 33.388489 -118.398217 264 10000ft 272kts
15-Apr-19 16:15 33.416146 -118.478312 308 10001ft 268kts
15-Apr-19 16:16 33.463940 -118.546462 308 10000ft 265kts
15-Apr-19 16:17 33.511409 -118.614237 308 9996ft 264kts
15-Apr-19 16:18 33.558460 -118.681499 308 9994ft 263kts
15-Apr-19 16:19 33.605407 -118.748731 308 9993ft 262kts
15-Apr-19 16:20 33.652261 -118.815957 308 9992ft 262kts
15-Apr-19 16:21 33.699088 -118.883271 308 9997ft 262kts
15-Apr-19 16:22 33.745801 -118.950547 308 9996ft 262kts
15-Apr-19 16:23 33.797353 -119.011504 334 9991ft 265kts
15-Apr-19 16:24 33.870759 -119.023951 353 9992ft 267kts
15-Apr-19 16:25 33.944993 -119.031661 353 10006ft 267kts
15-Apr-19 16:26 34.019134 -119.039423 352 10010ft 267kts
15-Apr-19 16:27 34.092793 -119.049721 339 10008ft 265kts
15-Apr-19 16:28 34.141315 -119.111592 296 10009ft 260kts
15-Apr-19 16:29 34.173209 -119.188040 296 8880ft 249kts
15-Apr-19 16:30 34.203979 -119.261743 296 7681ft 243kts
15-Apr-19 16:31 34.234111 -119.333901 296 6428ft 234kts
15-Apr-19 16:32 34.262310 -119.401637 296 5019ft 219kts
15-Apr-19 16:33 34.288502 -119.464682 296 4071ft 191kts
15-Apr-19 16:34 34.313036 -119.524027 295 4004ft 207kts
15-Apr-19 16:35 34.336234 -119.589541 293 3531ft 214kts
15-Apr-19 16:36 34.358823 -119.652838 293 3004ft 192kts
15-Apr-19 16:37 34.379897 -119.711729 293 2585ft 190kts
15-Apr-19 16:38 34.401800 -119.763993 305 2369ft 133kts
15-Apr-19 16:39 34.428090 -119.792122 269 1187ft 130kts
15-Apr-19 16:41 34.427935 -119.833233 265 55ft 101kts
15-Apr-19 16:42 34.426556 -119.845815 89 15ft 12kts
15-Apr-19 16:43 34.426696 -119.838639 98 15ft 20kts
15-Apr-19 16:44 34.422625 -119.836184 91 15ft 10kts
15-Apr-19 16:45 34.422514 -119.835780 161 15ft 0kts
15-Apr-19 16:46 34.422514 -119.835780 161 15ft 0kts

Navigation Log

Ident Type
Flight plan parsing failed, navigation log unavailable